createdAt,value
2023-02-28T00:01:02.444Z,95.23
2023-02-28T00:04:10.500Z,95.44
2023-02-28T00:07:17.717Z,95.34
2023-02-28T00:10:26.137Z,95.65
2023-02-28T00:13:34.059Z,95.97
2023-02-28T00:16:41.486Z,95.97
2023-02-28T00:19:49.203Z,95.97
2023-02-28T00:22:57.140Z,96.12
2023-02-28T00:26:04.941Z,96.22
2023-02-28T00:29:12.959Z,96.33
2023-02-28T00:32:20.764Z,96.33
2023-02-28T00:35:28.513Z,96.53
2023-02-28T00:38:36.861Z,96.53
2023-02-28T00:41:44.559Z,96.33
2023-02-28T00:44:52.239Z,96.53
2023-02-28T00:47:59.922Z,96.64
2023-02-28T00:51:08.049Z,96.95
2023-02-28T00:54:15.651Z,97.17
2023-02-28T00:57:23.441Z,97.27
2023-02-28T01:00:31.311Z,97.33
2023-02-28T01:03:39.363Z,97.23
2023-02-28T01:06:47.191Z,97.33
2023-02-28T01:09:59.232Z,97.12
2023-02-28T01:13:06.852Z,96.91
2023-02-28T01:16:14.629Z,96.39
2023-02-28T01:19:22.793Z,95.82
2023-02-28T01:22:30.242Z,95.50
2023-02-28T01:25:38.560Z,95.08
2023-02-28T01:28:47.152Z,94.87
2023-02-28T01:31:54.586Z,94.67
2023-02-28T01:35:02.562Z,94.56
2023-02-28T01:38:21.648Z,94.35
2023-02-28T01:41:15.033Z,93.99
2023-02-28T01:44:23.005Z,93.78
2023-02-28T01:47:31.522Z,93.78
2023-02-28T01:50:38.810Z,93.78
2023-02-28T01:53:47.060Z,93.57
2023-02-28T01:56:54.864Z,93.68
2023-02-28T02:00:02.547Z,94.14
2023-02-28T02:03:10.373Z,94.56
2023-02-28T02:06:17.894Z,94.87
2023-02-28T02:09:25.491Z,94.81
2023-02-28T02:12:33.151Z,94.60
2023-02-28T02:15:41.416Z,94.60
2023-02-28T02:18:49.292Z,94.60
2023-02-28T02:21:56.692Z,94.60
2023-02-28T02:25:04.870Z,94.81
2023-02-28T02:28:12.231Z,94.81
2023-02-28T02:31:20.435Z,94.92
2023-02-28T02:34:28.774Z,94.92
2023-02-28T02:37:36.578Z,95.02
2023-02-28T02:40:44.322Z,95.02
2023-02-28T02:43:52.133Z,95.02
2023-02-28T02:46:59.904Z,95.34
2023-02-28T02:50:07.332Z,95.76
2023-02-28T02:53:14.971Z,95.82
2023-02-28T02:56:23.184Z,95.92
2023-02-28T02:59:30.555Z,95.92
2023-02-28T03:02:38.742Z,95.04
2023-02-28T03:05:46.725Z,93.99
2023-02-28T03:08:54.184Z,93.53
2023-02-28T03:12:02.257Z,91.96
2023-02-28T03:15:10.201Z,89.09
2023-02-28T03:18:17.623Z,89.78
2023-02-28T03:21:25.368Z,88.06
2023-02-28T03:24:33.070Z,88.59
2023-02-28T03:27:41.198Z,90.36
2023-02-28T03:30:49.684Z,90.58
2023-02-28T03:33:57.594Z,90.68
2023-02-28T03:37:05.433Z,91.77
2023-02-28T03:40:13.179Z,91.98
2023-02-28T03:43:21.084Z,92.40
2023-02-28T03:46:28.851Z,92.76
2023-02-28T03:49:36.596Z,92.02
2023-02-28T03:52:44.827Z,91.60
2023-02-28T03:55:52.574Z,91.81
2023-02-28T03:59:00.504Z,91.81
2023-02-28T04:02:08.559Z,91.91
2023-02-28T04:05:15.814Z,91.71
2023-02-28T04:08:23.879Z,91.08
2023-02-28T04:11:32.054Z,90.45
2023-02-28T04:14:39.848Z,90.45
2023-02-28T04:17:47.531Z,90.23
2023-02-28T04:20:55.280Z,90.34
2023-02-28T04:24:03.020Z,90.03
2023-02-28T04:27:10.766Z,90.70
2023-02-28T04:30:18.562Z,91.64
2023-02-28T04:33:26.519Z,91.85
2023-02-28T04:36:33.980Z,91.64
2023-02-28T04:39:42.043Z,91.22
2023-02-28T04:42:50.120Z,91.22
2023-02-28T04:45:57.604Z,91.01
2023-02-28T04:49:05.173Z,90.80
2023-02-28T04:52:13.067Z,90.80
2023-02-28T04:55:21.018Z,90.91
2023-02-28T04:58:28.765Z,91.27
2023-02-28T05:01:36.198Z,91.58
2023-02-28T05:04:44.210Z,91.89
2023-02-28T05:07:51.845Z,91.96
2023-02-28T05:10:59.505Z,92.06
2023-02-28T05:14:07.251Z,92.16
2023-02-28T05:17:14.703Z,91.96
2023-02-28T05:20:22.861Z,91.64
2023-02-28T05:23:30.929Z,91.96
2023-02-28T05:26:38.501Z,92.38
2023-02-28T05:29:46.509Z,92.69
2023-02-28T05:32:53.815Z,92.80
2023-02-28T05:36:01.451Z,92.90
2023-02-28T05:39:09.260Z,93.21
2023-02-28T05:42:16.624Z,93.53
2023-02-28T05:45:24.655Z,93.63
2023-02-28T05:48:32.696Z,93.78
2023-02-28T05:51:39.980Z,93.68
2023-02-28T05:54:47.913Z,93.68
2023-02-28T05:57:55.693Z,93.05
2023-02-28T06:01:05.593Z,93.15
2023-02-28T06:04:29.245Z,93.30
2023-02-28T06:07:19.051Z,93.62
2023-02-28T06:10:26.877Z,93.93
2023-02-28T06:13:35.048Z,94.14
2023-02-28T06:16:42.950Z,94.45
2023-02-28T06:19:50.599Z,93.93
2023-02-28T06:22:57.993Z,93.93
2023-02-28T06:26:06.056Z,93.72
2023-02-28T06:29:14.070Z,92.88
2023-02-28T06:32:21.792Z,91.47
2023-02-28T06:35:30.086Z,90.95
2023-02-28T06:38:38.072Z,90.42
2023-02-28T06:41:54.562Z,90.53
2023-02-28T06:44:50.977Z,90.22
2023-02-28T06:47:58.653Z,89.02
2023-02-28T06:51:06.620Z,89.65
2023-02-28T06:54:14.871Z,90.11
2023-02-28T06:57:22.467Z,90.11
2023-02-28T07:00:30.442Z,90.42
2023-02-28T07:03:38.453Z,90.32
2023-02-28T07:06:46.249Z,90.42
2023-02-28T07:09:54.190Z,90.74
2023-02-28T07:13:01.940Z,91.16
2023-02-28T07:16:10.185Z,90.64
2023-02-28T07:19:17.862Z,90.49
2023-02-28T07:22:25.592Z,89.86
2023-02-28T07:25:33.613Z,89.29
2023-02-28T07:28:41.323Z,88.77
2023-02-28T07:31:49.061Z,88.31
2023-02-28T07:34:57.175Z,88.42
2023-02-28T07:38:04.564Z,87.68
2023-02-28T07:41:12.895Z,87.43
2023-02-28T07:44:20.977Z,87.23
2023-02-28T07:47:28.392Z,87.01
2023-02-28T07:50:36.617Z,87.96
2023-02-28T07:53:44.626Z,87.08
2023-02-28T07:56:51.959Z,85.89
2023-02-28T08:00:00.196Z,85.33
2023-02-28T08:03:08.038Z,84.73
2023-02-28T08:06:15.445Z,83.64
2023-02-28T08:09:23.447Z,82.87
2023-02-28T08:12:31.596Z,82.42
2023-02-28T08:15:39.102Z,82.07
2023-02-28T08:18:47.278Z,81.72
2023-02-28T08:21:54.980Z,81.89
2023-02-28T08:25:02.927Z,80.95
2023-02-28T08:28:10.454Z,80.29
2023-02-28T08:31:18.172Z,80.98
2023-02-28T08:34:26.015Z,80.46
2023-02-28T08:37:33.600Z,80.15
2023-02-28T08:40:41.586Z,79.83
2023-02-28T08:43:49.440Z,79.52
2023-02-28T08:46:56.857Z,79.83
2023-02-28T08:50:04.845Z,80.36
2023-02-28T08:53:12.541Z,80.57
2023-02-28T08:56:20.155Z,80.32
2023-02-28T08:59:28.156Z,79.80
2023-02-28T09:02:35.904Z,78.86
2023-02-28T09:05:43.810Z,79.28
2023-02-28T09:08:51.984Z,79.03
2023-02-28T09:11:59.314Z,78.45
2023-02-28T09:15:07.483Z,79.97
2023-02-28T09:18:15.931Z,79.91
2023-02-28T09:21:23.387Z,80.74
2023-02-28T09:24:32.232Z,80.32
2023-02-28T09:27:41.886Z,80.94
2023-02-28T09:30:49.522Z,80.32
2023-02-28T09:33:57.639Z,80.39
2023-02-28T09:37:05.934Z,81.53
2023-02-28T09:40:13.601Z,79.45
2023-02-28T09:43:21.331Z,80.15
2023-02-28T09:46:28.998Z,79.27
2023-02-28T09:49:36.913Z,77.40
2023-02-28T09:52:44.904Z,78.41
2023-02-28T09:55:52.386Z,75.40
2023-02-28T09:59:00.253Z,74.57
2023-02-28T10:02:07.920Z,73.08
2023-02-28T10:05:15.346Z,72.25
2023-02-28T10:08:23.599Z,71.62
2023-02-28T10:11:31.079Z,72.25
2023-02-28T10:14:39.439Z,71.49
2023-02-28T10:17:55.221Z,71.70
2023-02-28T10:20:52.086Z,71.80
2023-02-28T10:24:00.087Z,70.66
2023-02-28T10:27:07.689Z,71.00
2023-02-28T10:30:15.678Z,72.25
2023-02-28T10:33:23.910Z,69.62
2023-02-28T10:36:32.175Z,71.77
2023-02-28T10:39:40.391Z,70.52
2023-02-28T10:42:48.241Z,70.00
2023-02-28T10:45:56.251Z,69.24
2023-02-28T10:49:03.750Z,68.86
2023-02-28T10:52:11.414Z,68.86
2023-02-28T10:55:19.742Z,68.00
2023-02-28T10:58:27.439Z,69.63
2023-02-28T11:01:35.631Z,66.31
2023-02-28T11:04:43.995Z,67.42
2023-02-28T11:07:53.398Z,68.56
2023-02-28T11:11:01.770Z,65.77
2023-02-28T11:14:09.806Z,66.49
2023-02-28T11:17:17.172Z,68.25
2023-02-28T11:20:25.703Z,68.18
2023-02-28T11:23:34.835Z,65.69
2023-02-28T11:26:43.200Z,67.52
2023-02-28T11:29:51.222Z,67.32
2023-02-28T11:32:59.170Z,66.05
2023-02-28T11:36:06.754Z,67.60
2023-02-28T11:39:14.591Z,64.62
2023-02-28T11:42:22.243Z,67.52
2023-02-28T11:45:30.384Z,67.80
2023-02-28T11:48:38.239Z,65.08
2023-02-28T11:51:45.856Z,67.57
2023-02-28T11:54:53.886Z,66.84
2023-02-28T11:58:01.889Z,59.31
2023-02-28T12:01:09.478Z,58.31
2023-02-28T12:04:17.685Z,64.42
2023-02-28T12:07:25.418Z,64.39
2023-02-28T12:10:33.528Z,61.69
2023-02-28T12:13:41.555Z,61.59
2023-02-28T12:16:48.883Z,65.29
2023-02-28T12:19:56.905Z,60.63
2023-02-28T12:23:05.043Z,65.50
2023-02-28T12:26:12.401Z,61.77
2023-02-28T12:29:20.426Z,60.77
2023-02-28T12:32:28.302Z,57.97
2023-02-28T12:35:36.237Z,59.21
2023-02-28T12:38:44.331Z,56.73
2023-02-28T12:41:52.331Z,59.45
2023-02-28T12:45:00.192Z,56.34
2023-02-28T12:48:07.961Z,58.69
2023-02-28T12:51:16.072Z,58.18
2023-02-28T12:54:23.411Z,59.00
2023-02-28T12:57:31.022Z,59.31
2023-02-28T13:00:38.960Z,56.73
2023-02-28T13:03:46.448Z,56.41
2023-02-28T13:06:54.623Z,63.04
2023-02-28T13:10:02.735Z,59.80
2023-02-28T13:13:10.213Z,57.76
2023-02-28T13:16:18.398Z,60.77
2023-02-28T13:19:26.359Z,56.93
2023-02-28T13:22:33.737Z,60.84
2023-02-28T13:25:42.419Z,59.99
2023-02-28T13:28:50.301Z,61.64
2023-02-28T13:31:58.014Z,59.80
2023-02-28T13:35:05.600Z,60.71
2023-02-28T13:38:13.283Z,57.71
2023-02-28T13:41:20.933Z,58.84
2023-02-28T13:44:28.313Z,55.87
2023-02-28T13:47:36.509Z,60.42
2023-02-28T13:50:43.954Z,60.11
2023-02-28T13:53:51.571Z,58.15
2023-02-28T13:56:59.384Z,58.67
2023-02-28T14:00:06.678Z,55.98
2023-02-28T14:03:14.433Z,61.77
2023-02-28T14:06:22.680Z,61.57
2023-02-28T14:09:30.162Z,62.08
2023-02-28T14:12:37.819Z,57.56
2023-02-28T14:15:46.113Z,59.21
2023-02-28T14:18:53.861Z,57.56
2023-02-28T14:22:01.782Z,57.24
2023-02-28T14:25:09.927Z,56.62
2023-02-28T14:28:17.642Z,56.52
2023-02-28T14:31:25.503Z,56.00
2023-02-28T14:34:33.446Z,58.38
2023-02-28T14:37:41.722Z,56.41
2023-02-28T14:40:49.712Z,59.00
2023-02-28T14:43:57.443Z,59.55
2023-02-28T14:47:05.768Z,59.86
2023-02-28T14:50:13.125Z,58.72
2023-02-28T14:53:21.234Z,58.07
2023-02-28T14:56:29.871Z,58.28
2023-02-28T14:59:37.302Z,57.27
2023-02-28T15:02:45.567Z,57.56
2023-02-28T15:05:53.573Z,61.69
2023-02-28T15:09:01.046Z,61.87
2023-02-28T15:12:09.283Z,60.94
2023-02-28T15:15:17.272Z,59.42
2023-02-28T15:18:24.708Z,62.18
2023-02-28T15:21:32.877Z,58.69
2023-02-28T15:24:40.675Z,59.21
2023-02-28T15:27:48.515Z,60.87
2023-02-28T15:30:56.526Z,60.77
2023-02-28T15:34:04.339Z,56.73
2023-02-28T15:37:12.190Z,58.38
2023-02-28T15:40:19.687Z,60.66
2023-02-28T15:43:28.003Z,59.63
2023-02-28T15:46:35.760Z,59.55
2023-02-28T15:49:45.289Z,58.41
2023-02-28T15:52:53.632Z,61.62
2023-02-28T15:56:01.544Z,61.96
2023-02-28T15:59:08.903Z,59.89
2023-02-28T16:02:16.912Z,60.10
2023-02-28T16:05:24.516Z,62.48
2023-02-28T16:08:32.253Z,59.81
2023-02-28T16:11:40.837Z,60.85
2023-02-28T16:14:48.452Z,61.91
2023-02-28T16:17:56.258Z,62.43
2023-02-28T16:21:03.748Z,61.94
2023-02-28T16:24:11.712Z,61.84
2023-02-28T16:27:19.436Z,62.49
2023-02-28T16:30:27.422Z,64.36
2023-02-28T16:33:35.749Z,65.42
2023-02-28T16:36:43.130Z,64.59
2023-02-28T16:39:51.954Z,66.47
2023-02-28T16:43:00.033Z,67.22
2023-02-28T16:46:07.405Z,68.60
2023-02-28T16:49:15.679Z,69.89
2023-02-28T16:52:23.681Z,71.48
2023-02-28T16:55:31.093Z,72.13
2023-02-28T16:58:39.238Z,73.00
2023-02-28T17:01:47.369Z,74.18
2023-02-28T17:04:55.207Z,75.01
2023-02-28T17:08:03.225Z,75.57
2023-02-28T17:11:10.902Z,76.02
2023-02-28T17:14:18.432Z,76.65
2023-02-28T17:17:26.513Z,77.27
2023-02-28T17:20:34.361Z,77.20
2023-02-28T17:23:42.086Z,77.72
2023-02-28T17:26:49.841Z,77.66
2023-02-28T17:29:57.868Z,77.17
2023-02-28T17:33:05.622Z,77.48
2023-02-28T17:36:13.231Z,77.59
2023-02-28T17:39:20.962Z,77.51
2023-02-28T17:42:28.800Z,77.20
2023-02-28T17:45:36.756Z,77.10
2023-02-28T17:48:46.107Z,76.89
2023-02-28T17:51:53.473Z,77.51
2023-02-28T17:55:01.746Z,79.29
2023-02-28T17:58:09.950Z,79.92
2023-02-28T18:01:17.633Z,81.00
2023-02-28T18:04:25.799Z,81.21
2023-02-28T18:07:33.690Z,80.31
2023-02-28T18:10:41.404Z,80.62
2023-02-28T18:13:49.420Z,80.45
2023-02-28T18:16:57.624Z,80.35
2023-02-28T18:20:05.047Z,81.43
2023-02-28T18:23:13.460Z,81.53
2023-02-28T18:26:21.273Z,82.06
2023-02-28T18:29:29.231Z,82.68
2023-02-28T18:32:37.124Z,82.30
2023-02-28T18:35:44.845Z,81.36
2023-02-28T18:38:52.589Z,81.04
2023-02-28T18:42:00.531Z,81.15
2023-02-28T18:45:08.207Z,81.67
2023-02-28T18:48:16.060Z,82.09
2023-02-28T18:51:23.797Z,82.30
2023-02-28T18:54:32.007Z,81.99
2023-02-28T18:57:39.833Z,82.30
2023-02-28T19:00:47.814Z,82.62
2023-02-28T19:03:56.036Z,82.82
2023-02-28T19:07:03.722Z,83.07
2023-02-28T19:10:11.375Z,83.59
2023-02-28T19:13:19.840Z,83.18
2023-02-28T19:16:27.408Z,83.11
2023-02-28T19:19:35.621Z,83.11
2023-02-28T19:22:43.976Z,83.42
2023-02-28T19:25:51.426Z,83.74
2023-02-28T19:28:59.636Z,84.27
2023-02-28T19:32:07.636Z,83.95
2023-02-28T19:35:14.925Z,84.16
2023-02-28T19:38:22.936Z,84.72
2023-02-28T19:41:31.238Z,84.30
2023-02-28T19:44:38.764Z,83.98
2023-02-28T19:47:46.798Z,84.41
2023-02-28T19:50:54.749Z,84.93
2023-02-28T19:54:02.715Z,84.51
2023-02-28T19:57:10.949Z,84.20
2023-02-28T20:00:18.600Z,83.88
2023-02-28T20:03:26.371Z,83.71
2023-02-28T20:06:34.662Z,83.61
2023-02-28T20:09:42.431Z,83.81
2023-02-28T20:12:50.060Z,84.23
2023-02-28T20:15:57.572Z,83.92
2023-02-28T20:19:05.355Z,83.29
2023-02-28T20:22:13.161Z,83.71
2023-02-28T20:25:20.846Z,83.71
2023-02-28T20:28:28.710Z,83.75
2023-02-28T20:31:36.678Z,83.75
2023-02-28T20:34:44.058Z,84.27
2023-02-28T20:37:52.259Z,84.80
2023-02-28T20:41:00.063Z,84.48
2023-02-28T20:44:07.811Z,84.69
2023-02-28T20:47:15.918Z,84.59
2023-02-28T20:50:23.411Z,84.17
2023-02-28T20:53:31.340Z,83.54
2023-02-28T20:56:39.336Z,83.64
2023-02-28T20:59:46.788Z,83.54
2023-02-28T21:02:55.260Z,84.17
2023-02-28T21:06:02.974Z,84.48
2023-02-28T21:09:10.384Z,84.63
2023-02-28T21:12:18.320Z,85.47
2023-02-28T21:15:26.302Z,84.73
2023-02-28T21:18:34.050Z,84.73
2023-02-28T21:21:42.021Z,84.84
2023-02-28T21:24:49.956Z,85.25
2023-02-28T21:27:57.557Z,85.05
2023-02-28T21:31:05.457Z,85.25
2023-02-28T21:34:12.977Z,84.84
2023-02-28T21:37:20.710Z,84.42
2023-02-28T21:40:28.266Z,83.79
2023-02-28T21:43:36.293Z,84.10
2023-02-28T21:46:44.678Z,84.31
2023-02-28T21:49:52.118Z,84.42
2023-02-28T21:53:00.216Z,84.42
2023-02-28T21:56:08.184Z,84.42
2023-02-28T21:59:15.588Z,84.73
2023-02-28T22:02:23.414Z,84.63
2023-02-28T22:05:31.589Z,85.05
2023-02-28T22:08:38.952Z,85.68
2023-02-28T22:11:46.642Z,86.24
2023-02-28T22:14:54.360Z,86.45
2023-02-28T22:18:02.032Z,86.77
2023-02-28T22:21:10.100Z,87.33
2023-02-28T22:24:18.188Z,87.33
2023-02-28T22:27:26.159Z,87.33
2023-02-28T22:30:34.453Z,87.65
2023-02-28T22:33:42.111Z,87.85
2023-02-28T22:36:49.876Z,88.17
2023-02-28T22:39:57.832Z,88.59
2023-02-28T22:43:05.710Z,89.01
2023-02-28T22:46:13.271Z,89.37
2023-02-28T22:49:21.171Z,89.47
2023-02-28T22:52:29.414Z,89.58
2023-02-28T22:55:37.321Z,89.79
2023-02-28T22:58:45.819Z,90.00
2023-02-28T23:01:53.779Z,90.00
2023-02-28T23:05:01.455Z,90.46
2023-02-28T23:08:09.392Z,91.09
2023-02-28T23:11:17.596Z,91.20
2023-02-28T23:14:24.903Z,90.99
2023-02-28T23:17:32.850Z,90.78
2023-02-28T23:20:40.824Z,90.78
2023-02-28T23:23:48.173Z,90.78
2023-02-28T23:26:56.134Z,90.71
2023-02-28T23:30:03.916Z,90.92
2023-02-28T23:33:11.378Z,90.92
2023-02-28T23:36:19.633Z,91.13
2023-02-28T23:39:27.568Z,91.35
2023-02-28T23:42:34.995Z,91.45
2023-02-28T23:45:43.071Z,91.55
2023-02-28T23:48:50.900Z,91.45
2023-02-28T23:51:58.740Z,91.35
2023-02-28T23:55:07.072Z,91.35
2023-02-28T23:58:14.842Z,91.39
